Terminal Aerodrome Forecast
Issued by NWS

Home | Current Version | Previous Version | Text Only | Print | Product List | Glossary On
Versions: 1 2 3 4 5 6 7 8 9 10 11 12 13 14
000
FTPA31 PHFO 312000 AAA
TAFMKK
TAF AMD
PHMK 312010Z 3120/0118 04012G20KT 6SM SHRA BKN025
     FM312200 04015G25KT P6SM VCSH SCT025 BKN040
     FM010900 05010KT P6SM SCT025 SCT045=

USA.gov is the U.S. government's official web portal to all federal, state and local government web resources and services.